Chelmsley Wood, United Kingdom
Current Conditions -  °F | °C
As of 8:50 PM on Tuesday 27 Jan 2015 (Local Time) from EGBB Reporting Station
Scattered Clouds Scattered Clouds  
Wind Chill: 39°   Ceiling: Unl
Heat Index: 43°   Visibility: 6mi
Dew Point: 36°   Wind: 7mph
Humidity: 76%   Direction: 250°WSW
Pressure: 30.12"   Gusts: NA
Location:  52.48°N, 1.74°W
Report Text: EGBB 272050Z 25006KT 200V280 9999 SCT022 06/02 Q1020
Loading
Personal Weather Stations






























Interactive Weather Map New forecast layout! Learn more

10-Day Weather Forecast

Advertisements
Track Severe Weather on mobile